Airfield :
LOGIN :

Register | Disclaimer

   EN    FR    IT 

 










Legend :    VFR   Marginal VFR   IFR   Intensive IFR   Very Intensive IFR
Visi :
Ceiling :
>= 8 km
>= 3000ft
5 to 8 km
1000 to 3000 ft
1500m to 5 km
500 to 1000 ft
800 to 1500m
200 to 500 ft
< 800m
< 200 ft
Symbols :   Thunderstorms  Fog  Heavy snow  Heavy precipitations  Wind > 20 kt
SIGMETs :     Misc.  Thunderstorms  Icing  Turbulence  Mountain Waves  Volcanic Ashes






- Airport Elevation : 219 ft
- IATA code : DNR


LFRD - Dinard

CURRENT METAR :
  • 031130Z AUTO 35012KT 9999 BKN025 BKN032 19/12 Q1019 NOSIG

EXPIRED METARs :
  • 031100Z AUTO 32011KT 9999 BKN028 BKN037 18/12 Q1019 NOSIG
  • 031030Z AUTO 32010KT 290V350 9999 BKN027 BKN034 18/11 Q1019 NOSIG
  • 031000Z AUTO 32011KT 300V360 9999 BKN025 BKN031 BKN040 18/11 Q1019 NOSIG
  • 030930Z AUTO 34010KT 310V010 9999 BKN025 BKN031 BKN041 18/12 Q1019 NOSIG
  • 030900Z AUTO 34010KT 9999 BKN024 BKN031 17/13 Q1019 NOSIG

TAF TAF LFRD
Valid from the 03 at 12:00 until the 04 at 12:00 UTC


031100Z 0312/0412 33010KT 9999 SCT030
BECMG 0400/0402 VRB05KT
TEMPO 0403/0406 3000 BR
ATIS : +33 2 99 16 81 50



MET'MAP, your aeronautical weather chart ! - Copyright ORBIFLY December 2007 - Disclaimer

ORBIFLY MET'MAP TEAM :

Programming & Development : Alexandra Zaïnal
Concept & original design : Baudouin d'Aumeries
Assistance for programming : Marc-Olivier Méhu
Technical & hardware support : Manuel Goepfert

Contact : metmap@orbifly.com




SOURCES & CREDITS :

   NOAA